CheckWX is a tool to help pilots better visualize weather data.  It is not intended as a substitute for an official pre-flight weather briefing.

07:06:25 UTC

CYDQ METAR
Dawson Creek Airport
Dawson Creek, Canada
Current

1 hour ago

CYDQ 210600Z AUTO 12010G15KT 9SM CLR 13/M03 A2976 RMK SLP086 DENSITY ALT 2600FT
Observed
May-21 @ 06:00 UTC
Wind
  • 120° at 10 KTS
  • Gusting to 15 KTS
Visibility
9 SM
Flight Rules
VFR
Cloud Levels
  • Clear skies
Temperature
13°C / 55°F
Dewpoint
-3°C / 27°F
Humidity
33%
Altimeter
29.76" Hg
Pressure
1007.82 hPa
Previous

2 hours ago

CYDQ 210500Z AUTO 11011G17KT 9SM CLR 15/M04 A2974 RMK SLP083 DENSITY ALT 2800FT
Observed
May-21 @ 05:00 UTC
Wind
  • 110° at 11 KTS
  • Gusting to 17 KTS
Visibility
9 SM
Flight Rules
VFR
Cloud Levels
  • Clear skies
Temperature
15°C / 59°F
Dewpoint
-4°C / 25°F
Humidity
27%
Altimeter
29.74" Hg
Pressure
1007.12 hPa
Previous

3 hours ago

CYDQ 210400Z AUTO 10012G19KT 9SM CLR 16/M05 A2973 RMK SLP079 DENSITY ALT 2900FT
Observed
May-21 @ 04:00 UTC
Wind
  • 100° at 12 KTS
  • Gusting to 19 KTS
Visibility
9 SM
Flight Rules
VFR
Cloud Levels
  • Clear skies
Temperature
16°C / 61°F
Dewpoint
-5°C / 23°F
Humidity
23%
Altimeter
29.73" Hg
Pressure
1006.82 hPa